Unalaska Airport
PADU : now visible

Aeroporto :











RITROVATECI SU...

 
LOGIN :

Iscrizione | Disclaimer

   EN    FR    IT 

 









Sommario :    VFR   VFR Marginale   IFR   IFR Intensivo   IFR Molto Intensivo
Visibilità : 
Base nubi : 
>= 8 km
>= 3000ft
5 / 8 km
1000 / 3000 ft
1500m / 5 km
500 / 1000 ft
800 / 1500m
200 / 500 ft
< 800m
< 200 ft
Simboli :   Temporali  Nebbia  Neve Forte  Precipitazioni Forti  Vento > 20 kt






- Altitudine del aeroporto : 22 ft
- Codice IATA : DUT


PADU - Unalaska

ULTIMO METAR :
  • 011927Z 36008KT 10SM SCT006 BKN017 OVC045 07/06 A2918 RMK AO2

METARs OBSOLETI :
  • 011856Z AUTO 35010KT 10SM SCT007 BKN042 OVC050 07/06 A2916 RMK AO2 RAE09 SLP879 P0000 T00720056
  • 011845Z AUTO 36009KT 9SM BKN007 OVC043 07/06 A2916 RMK AO2 RAE09 CIG 005V016 P0000
  • 011751Z AUTO 36009G17KT 10SM -RA SCT006 SCT010 OVC043 07/06 A2914 RMK AO2 RAE1657B14 SLP871 P0001 60012 T00670056 10072 20067 52019
  • 011739Z AUTO 34013KT 10SM -RA BKN006 BKN038 OVC046 07/06 A2913 RMK AO2 RAE1657B14 CIG 005V009 P0001
  • 011726Z AUTO 35014G17KT 10SM -RA SCT008 BKN036 OVC048 07/06 A2913 RMK AO2 RAE1657B14 P0000
  • 011656Z AUTO 01011KT 10SM -RA FEW028 BKN046 OVC060 07/05 A2912 RMK AO2 SLP863 P0001 T00720050

TAF PADU
Valido dal 01 a 18 ore il 02 a 18 ore UTC


011745Z 0118/0218 36012KT P6SM -RA SCT006 OVC035
TEMPO 0118/0122 5SM -RA BR BKN006
FM020000 36010KT P6SM VCSH BKN025
FIR PAZA / America del Nord



MetMap, La meteo Aeronautica in un colpo d'occhio ! - Copyright ORBIFLY Dicembre 2007 - Disclaimer

ORBIFLY MET'MAP TEAM :

Programmazione e sviluppo : Alexandra Zaïnal
Concezione : Baudouin d'Aumeries
Aiuto per la programmazione : Marc-Olivier Méhu
Supporto tecnico e logistico : Manuel Goepfert
Aiuto per la traduzione : Arnaldo La Scala

Contatto : metmap@orbifly.com




FONTI E CREDITI :

   NOAA       Earth
Advisory